createdAt,value
2022-10-28T00:01:17.413Z,8.73
2022-10-28T00:03:58.547Z,8.20
2022-10-28T00:06:35.447Z,8.45
2022-10-28T00:09:05.740Z,8.30
2022-10-28T00:11:35.849Z,8.90
2022-10-28T00:14:06.094Z,9.85
2022-10-28T00:16:37.087Z,9.27
2022-10-28T00:19:08.319Z,9.55
2022-10-28T00:21:38.282Z,9.65
2022-10-28T00:24:08.175Z,9.88
2022-10-28T00:26:39.304Z,10.23
2022-10-28T00:29:16.792Z,9.68
2022-10-28T00:31:45.591Z,9.38
2022-10-28T00:34:17.819Z,9.73
2022-10-28T00:36:46.938Z,10.25
2022-10-28T00:39:18.482Z,9.88
2022-10-28T00:44:58.993Z,9.88
2022-10-28T00:47:37.418Z,10.15
2022-10-28T00:50:25.884Z,9.57
2022-10-28T00:53:06.256Z,9.73
2022-10-28T00:55:36.431Z,9.38
2022-10-28T00:58:07.476Z,10.70
2022-10-28T01:00:34.893Z,9.52
2022-10-28T01:03:02.555Z,10.07
2022-10-28T01:05:34.696Z,10.85
2022-10-28T01:08:05.066Z,9.63
2022-10-28T01:10:50.553Z,10.20
2022-10-28T01:13:50.245Z,10.68
2022-10-28T01:16:29.640Z,10.95
2022-10-28T01:19:52.592Z,9.85
2022-10-28T01:22:36.357Z,9.68
2022-10-28T01:25:12.460Z,10.35
2022-10-28T01:28:20.312Z,10.48
2022-10-28T01:31:14.442Z,9.75
2022-10-28T01:34:31.412Z,10.25
2022-10-28T01:37:12.596Z,10.38
2022-10-28T01:40:00.643Z,10.23
2022-10-28T01:43:04.504Z,11.20
2022-10-28T01:45:45.503Z,10.73
2022-10-28T01:48:22.086Z,10.37
2022-10-28T01:51:14.688Z,10.77
2022-10-28T01:53:46.436Z,10.15
2022-10-28T01:56:21.769Z,11.60
2022-10-28T01:58:52.297Z,10.20
2022-10-28T02:01:20.914Z,10.70
2022-10-28T02:03:48.924Z,10.02
2022-10-28T02:06:22.476Z,10.35
2022-10-28T02:09:09.964Z,9.88
2022-10-28T02:12:06.432Z,10.25
2022-10-28T02:15:06.013Z,11.38
2022-10-28T02:18:10.520Z,10.65
2022-10-28T02:21:10.605Z,9.60
2022-10-28T02:23:47.437Z,9.20
2022-10-28T02:26:38.942Z,10.00
2022-10-28T02:29:17.336Z,9.65
2022-10-28T02:31:57.576Z,9.25
2022-10-28T02:34:33.122Z,9.88
2022-10-28T02:37:10.978Z,9.52
2022-10-28T02:39:48.171Z,8.57
2022-10-28T02:42:25.323Z,9.98
2022-10-28T02:45:09.587Z,9.68
2022-10-28T02:47:44.943Z,9.02
2022-10-28T02:50:19.434Z,9.20
2022-10-28T02:52:54.881Z,9.25
2022-10-28T02:55:30.117Z,9.90
2022-10-28T02:57:58.199Z,9.07
2022-10-28T03:00:25.628Z,10.45
2022-10-28T03:02:53.035Z,10.02
2022-10-28T03:05:20.745Z,10.02
2022-10-28T03:07:48.100Z,9.85
2022-10-28T03:10:15.471Z,9.80
2022-10-28T03:12:42.861Z,9.93
2022-10-28T03:15:10.910Z,8.77
2022-10-28T03:17:38.243Z,9.57
2022-10-28T03:20:06.376Z,9.95
2022-10-28T03:22:33.711Z,9.38
2022-10-28T03:25:01.042Z,8.90
2022-10-28T03:27:28.456Z,9.43
2022-10-28T03:29:55.802Z,8.85
2022-10-28T03:34:50.535Z,9.93
2022-10-28T03:37:17.880Z,9.15
2022-10-28T03:39:45.224Z,9.02
2022-10-28T03:42:12.565Z,8.98
2022-10-28T03:44:39.897Z,9.63
2022-10-28T03:47:07.439Z,9.43
2022-10-28T03:49:37.746Z,10.23
2022-10-28T03:52:05.301Z,9.82
2022-10-28T03:54:32.651Z,9.10
2022-10-28T03:57:00.079Z,9.00
2022-10-28T03:59:27.432Z,9.18
2022-10-28T04:01:54.883Z,10.07
2022-10-28T04:04:24.217Z,8.88
2022-10-28T04:06:53.407Z,9.77
2022-10-28T04:09:20.767Z,9.40
2022-10-28T04:11:49.325Z,8.90
2022-10-28T04:14:16.819Z,9.82
2022-10-28T04:16:44.166Z,9.40
2022-10-28T04:19:11.512Z,8.95
2022-10-28T04:21:38.995Z,8.68
2022-10-28T04:24:06.433Z,8.63
2022-10-28T04:26:33.776Z,8.43
2022-10-28T04:29:01.150Z,8.85
2022-10-28T04:31:28.484Z,8.88
2022-10-28T04:33:55.875Z,9.43
2022-10-28T04:36:23.225Z,8.32
2022-10-28T04:38:51.907Z,9.75
2022-10-28T04:41:19.277Z,8.73
2022-10-28T04:43:46.637Z,9.00
2022-10-28T04:46:13.982Z,8.10
2022-10-28T04:48:41.398Z,7.95
2022-10-28T04:51:08.819Z,8.48
2022-10-28T04:53:36.157Z,7.75
2022-10-28T04:56:03.673Z,8.07
2022-10-28T04:58:31.206Z,8.90
2022-10-28T05:00:58.590Z,8.23
2022-10-28T05:03:26.017Z,7.57
2022-10-28T05:05:53.415Z,8.05
2022-10-28T05:08:20.757Z,7.55
2022-10-28T05:10:50.961Z,8.30
2022-10-28T05:13:19.371Z,7.38
2022-10-28T05:15:50.661Z,7.78
2022-10-28T05:18:18.573Z,7.55
2022-10-28T05:20:45.968Z,8.05
2022-10-28T05:23:13.313Z,7.88
2022-10-28T05:25:42.564Z,7.32
2022-10-28T05:28:09.950Z,7.13
2022-10-28T05:30:37.902Z,7.72
2022-10-28T05:33:05.553Z,7.70
2022-10-28T05:35:32.988Z,7.47
2022-10-28T05:38:00.423Z,8.15
2022-10-28T05:40:27.828Z,8.32
2022-10-28T05:42:55.397Z,7.93
2022-10-28T05:45:22.984Z,7.50
2022-10-28T05:47:50.363Z,7.90
2022-10-28T05:50:20.533Z,8.00
2022-10-28T05:52:54.064Z,8.15
2022-10-28T05:55:24.826Z,7.70
2022-10-28T05:57:53.051Z,8.43
2022-10-28T06:00:24.523Z,7.97
2022-10-28T06:02:52.152Z,9.02
2022-10-28T06:05:20.352Z,8.48
2022-10-28T06:07:47.766Z,7.75
2022-10-28T06:10:15.210Z,7.50
2022-10-28T06:12:41.074Z,8.93
2022-10-28T06:15:08.892Z,8.55
2022-10-28T06:17:36.305Z,8.30
2022-10-28T06:20:04.995Z,7.57
2022-10-28T06:22:32.480Z,7.70
2022-10-28T06:24:59.921Z,8.48
2022-10-28T06:27:27.272Z,8.75
2022-10-28T06:29:54.661Z,8.55
2022-10-28T06:32:22.042Z,7.90
2022-10-28T06:34:49.797Z,8.23
2022-10-28T06:37:17.864Z,7.93
2022-10-28T06:39:49.691Z,8.13
2022-10-28T06:42:17.664Z,8.82
2022-10-28T06:44:45.061Z,8.30
2022-10-28T06:47:14.018Z,8.68
2022-10-28T06:49:41.377Z,7.28
2022-10-28T06:52:08.755Z,7.90
2022-10-28T06:54:36.118Z,8.13
2022-10-28T06:57:03.659Z,7.97
2022-10-28T06:59:31.070Z,7.68
2022-10-28T07:01:58.502Z,8.07
2022-10-28T07:04:25.998Z,7.72
2022-10-28T07:06:58.069Z,8.50
2022-10-28T07:09:25.524Z,8.32
2022-10-28T07:11:55.119Z,7.22
2022-10-28T07:14:23.104Z,7.38
2022-10-28T07:16:50.483Z,7.72
2022-10-28T07:19:21.690Z,7.90
2022-10-28T07:21:49.935Z,8.45
2022-10-28T07:24:17.395Z,7.78
2022-10-28T07:26:47.036Z,8.00
2022-10-28T07:29:14.519Z,7.40
2022-10-28T07:31:42.007Z,7.55
2022-10-28T07:34:09.556Z,7.53
2022-10-28T07:36:37.123Z,7.65
2022-10-28T07:39:04.956Z,7.93
2022-10-28T07:41:32.317Z,8.05
2022-10-28T07:43:59.793Z,8.07
2022-10-28T07:46:27.256Z,7.47
2022-10-28T07:48:54.660Z,8.23
2022-10-28T07:51:22.046Z,8.55
2022-10-28T07:53:49.399Z,7.60
2022-10-28T07:56:16.898Z,8.23
2022-10-28T07:58:45.322Z,7.32
2022-10-28T08:01:16.746Z,7.47
2022-10-28T08:06:19.147Z,7.28
2022-10-28T08:08:52.629Z,7.82
2022-10-28T08:11:24.887Z,7.65
2022-10-28T08:13:53.280Z,8.13
2022-10-28T08:16:20.735Z,8.23
2022-10-28T08:18:48.471Z,7.70
2022-10-28T08:21:16.124Z,7.95
2022-10-28T08:23:46.725Z,8.50
2022-10-28T08:26:16.566Z,7.97
2022-10-28T08:28:44.007Z,8.90
2022-10-28T08:31:12.488Z,7.97
2022-10-28T08:33:46.305Z,7.88
2022-10-28T08:36:16.694Z,8.30
2022-10-28T08:38:46.552Z,8.15
2022-10-28T08:41:29.911Z,8.75
2022-10-28T08:44:33.609Z,7.75
2022-10-28T08:47:09.735Z,8.35
2022-10-28T08:49:43.486Z,7.82
2022-10-28T08:52:56.400Z,7.85
2022-10-28T08:56:07.654Z,7.30
2022-10-28T08:58:39.276Z,7.00
2022-10-28T09:03:50.826Z,6.22
2022-10-28T09:06:18.217Z,6.72
2022-10-28T09:08:49.994Z,6.13
2022-10-28T09:11:38.718Z,6.47
2022-10-28T09:14:37.707Z,6.30
2022-10-28T09:17:16.245Z,5.90
2022-10-28T09:20:14.513Z,6.55
2022-10-28T09:22:59.501Z,5.88
2022-10-28T09:25:57.263Z,5.63
2022-10-28T09:28:39.330Z,5.68
2022-10-28T09:31:32.376Z,5.53
2022-10-28T09:34:17.632Z,5.82
2022-10-28T09:36:58.731Z,5.25
2022-10-28T09:39:43.728Z,5.05
2022-10-28T09:42:19.243Z,5.43
2022-10-28T09:45:06.248Z,5.97
2022-10-28T09:47:53.955Z,5.32
2022-10-28T09:50:29.434Z,5.60
2022-10-28T09:53:21.134Z,5.68
2022-10-28T09:55:50.809Z,5.75
2022-10-28T09:58:19.193Z,5.35
2022-10-28T10:00:46.612Z,5.18
2022-10-28T10:03:17.176Z,5.35
2022-10-28T10:05:52.732Z,5.53
2022-10-28T10:08:22.643Z,5.45
2022-10-28T10:10:57.521Z,5.18
2022-10-28T10:13:35.437Z,5.88
2022-10-28T10:16:18.368Z,5.63
2022-10-28T10:18:53.518Z,5.22
2022-10-28T10:21:54.347Z,5.50
2022-10-28T10:24:32.447Z,4.90
2022-10-28T10:27:14.237Z,5.90
2022-10-28T10:29:48.586Z,5.22
2022-10-28T10:32:23.055Z,5.00
2022-10-28T10:35:36.822Z,4.97
2022-10-28T10:38:07.756Z,4.97
2022-10-28T10:40:48.966Z,4.85
2022-10-28T10:43:17.394Z,4.85
2022-10-28T10:46:06.189Z,4.80
2022-10-28T10:48:37.736Z,5.03
2022-10-28T10:51:27.234Z,4.95
2022-10-28T10:54:01.814Z,5.25
2022-10-28T10:56:33.838Z,5.35
2022-10-28T10:59:12.177Z,5.28
2022-10-28T11:01:40.663Z,4.85
2022-10-28T11:04:16.985Z,4.80
2022-10-28T11:06:50.977Z,4.85
2022-10-28T11:09:39.535Z,4.60
2022-10-28T11:12:31.988Z,4.80
2022-10-28T11:15:04.250Z,4.75
2022-10-28T11:17:34.659Z,4.60
2022-10-28T11:20:31.055Z,4.77
2022-10-28T11:23:24.484Z,4.85
2022-10-28T11:25:58.977Z,4.68
2022-10-28T11:29:07.460Z,4.00
2022-10-28T11:32:54.612Z,4.90
2022-10-28T11:35:56.022Z,4.05
2022-10-28T11:38:47.867Z,4.68
2022-10-28T11:41:37.627Z,4.75
2022-10-28T11:44:27.358Z,4.32
2022-10-28T11:47:41.799Z,4.30
2022-10-28T11:50:42.135Z,4.13
2022-10-28T11:53:21.509Z,4.20
2022-10-28T11:56:10.546Z,4.03
2022-10-28T11:59:02.774Z,4.10
2022-10-28T12:02:15.117Z,4.10
2022-10-28T12:05:15.677Z,3.80
2022-10-28T12:07:54.067Z,3.15
2022-10-28T12:11:01.943Z,4.03
2022-10-28T12:13:49.613Z,4.15
2022-10-28T12:16:29.566Z,4.40
2022-10-28T12:19:11.383Z,4.05
2022-10-28T12:21:45.944Z,4.72
2022-10-28T12:24:20.131Z,4.57
2022-10-28T12:26:57.185Z,4.10
2022-10-28T12:29:40.643Z,4.30
2022-10-28T12:32:20.465Z,4.50
2022-10-28T12:34:59.039Z,4.82
2022-10-28T12:38:13.727Z,4.00
2022-10-28T12:40:58.079Z,4.40
2022-10-28T12:43:44.009Z,4.35
2022-10-28T12:46:28.826Z,3.97
2022-10-28T12:49:07.307Z,4.80
2022-10-28T12:51:40.704Z,4.18
2022-10-28T12:54:27.615Z,4.18
2022-10-28T12:57:13.802Z,4.95
2022-10-28T12:59:53.695Z,4.50
2022-10-28T13:02:31.347Z,4.45
2022-10-28T13:04:58.937Z,4.70
2022-10-28T13:08:00.161Z,4.35
2022-10-28T13:10:51.661Z,4.53
2022-10-28T13:13:38.023Z,4.32
2022-10-28T13:16:57.043Z,4.82
2022-10-28T13:20:01.308Z,5.15
2022-10-28T13:23:03.722Z,4.72
2022-10-28T13:25:43.148Z,4.20
2022-10-28T13:28:17.720Z,4.00
2022-10-28T13:30:58.970Z,4.55
2022-10-28T13:33:30.345Z,4.70
2022-10-28T13:38:48.942Z,4.78
2022-10-28T13:41:41.012Z,5.05
2022-10-28T13:44:10.748Z,4.35
2022-10-28T13:46:56.954Z,4.65
2022-10-28T13:49:26.543Z,4.80
2022-10-28T13:52:07.633Z,4.93
2022-10-28T13:54:43.928Z,4.68
2022-10-28T13:57:35.388Z,4.80
2022-10-28T14:03:02.655Z,4.65
2022-10-28T14:05:36.215Z,4.75
2022-10-28T14:08:08.020Z,5.07
2022-10-28T14:10:40.353Z,4.82
2022-10-28T14:13:21.207Z,4.72
2022-10-28T14:16:11.732Z,4.43
2022-10-28T14:18:56.885Z,4.47
2022-10-28T14:21:24.730Z,4.53
2022-10-28T14:24:09.096Z,4.88
2022-10-28T14:27:07.990Z,4.70
2022-10-28T14:29:59.482Z,5.40
2022-10-28T14:33:19.087Z,5.53
2022-10-28T14:35:50.365Z,4.50
2022-10-28T14:41:46.786Z,4.43
2022-10-28T14:44:52.551Z,4.97
2022-10-28T14:47:40.150Z,4.63
2022-10-28T14:50:42.193Z,4.60
2022-10-28T14:53:24.056Z,5.03
2022-10-28T14:56:03.392Z,4.80
2022-10-28T14:58:43.277Z,4.97
2022-10-28T15:01:16.415Z,4.75
2022-10-28T15:03:54.652Z,5.78
2022-10-28T15:06:39.246Z,4.65
2022-10-28T15:09:31.741Z,4.90
2022-10-28T15:12:08.758Z,4.47
2022-10-28T15:14:50.662Z,5.20
2022-10-28T15:17:28.120Z,4.70
2022-10-28T15:20:00.682Z,5.07
2022-10-28T15:22:33.045Z,4.80
2022-10-28T15:25:10.526Z,4.38
2022-10-28T15:27:41.371Z,4.93
2022-10-28T15:30:25.191Z,4.55
2022-10-28T15:32:54.649Z,4.47
2022-10-28T15:35:38.121Z,4.80
2022-10-28T15:38:31.988Z,5.05
2022-10-28T15:40:59.539Z,5.07
2022-10-28T15:43:30.542Z,4.75
2022-10-28T15:46:15.288Z,5.22
2022-10-28T15:48:42.722Z,5.82
2022-10-28T15:51:19.454Z,5.50
2022-10-28T15:53:53.992Z,5.60
2022-10-28T15:56:25.029Z,5.45
2022-10-28T15:59:23.409Z,5.43
2022-10-28T16:01:51.525Z,5.10
2022-10-28T16:04:19.015Z,5.25
2022-10-28T16:06:46.571Z,5.70
2022-10-28T16:09:25.949Z,5.55
2022-10-28T16:12:01.591Z,5.93
2022-10-28T16:14:58.911Z,5.60
2022-10-28T16:17:33.144Z,6.22
2022-10-28T16:20:04.327Z,5.35
2022-10-28T16:22:36.272Z,6.30
2022-10-28T16:25:36.892Z,6.90
2022-10-28T16:28:09.655Z,6.72
2022-10-28T16:30:37.089Z,6.13
2022-10-28T16:33:05.826Z,6.22
2022-10-28T16:35:33.185Z,7.28
2022-10-28T16:38:00.529Z,8.13
2022-10-28T16:40:50.546Z,7.53
2022-10-28T16:43:26.756Z,8.18
2022-10-28T16:45:57.140Z,7.57
2022-10-28T16:48:28.770Z,6.72
2022-10-28T16:51:04.847Z,7.10
2022-10-28T16:53:35.264Z,6.57
2022-10-28T16:56:02.692Z,7.15
2022-10-28T16:58:30.435Z,6.72
2022-10-28T17:01:00.236Z,5.88
2022-10-28T17:03:27.593Z,6.10
2022-10-28T17:05:54.928Z,6.30
2022-10-28T17:08:36.461Z,5.78
2022-10-28T17:11:18.023Z,6.05
2022-10-28T17:13:45.486Z,5.90
2022-10-28T17:16:15.154Z,5.82
2022-10-28T17:18:44.159Z,6.00
2022-10-28T17:21:11.599Z,6.85
2022-10-28T17:23:40.079Z,6.60
2022-10-28T17:26:07.422Z,6.45
2022-10-28T17:28:34.864Z,5.72
2022-10-28T17:31:08.204Z,6.45
2022-10-28T17:33:45.101Z,6.43
2022-10-28T17:36:13.657Z,5.57
2022-10-28T17:38:41.039Z,5.50
2022-10-28T17:41:08.464Z,6.20
2022-10-28T17:43:35.835Z,7.07
2022-10-28T17:46:05.780Z,7.85
2022-10-28T17:48:34.392Z,7.22
2022-10-28T17:51:04.771Z,6.80
2022-10-28T17:53:32.308Z,6.55
2022-10-28T17:56:03.073Z,6.63
2022-10-28T17:58:31.227Z,6.60
2022-10-28T18:01:01.492Z,6.57
2022-10-28T18:03:38.266Z,6.78
2022-10-28T18:06:13.154Z,7.75
2022-10-28T18:08:43.307Z,8.50
2022-10-28T18:11:16.541Z,7.70
2022-10-28T18:13:47.539Z,8.63
2022-10-28T18:16:20.029Z,8.70
2022-10-28T18:18:47.928Z,8.15
2022-10-28T18:21:15.310Z,8.88
2022-10-28T18:23:59.086Z,8.00
2022-10-28T18:26:26.453Z,7.70
2022-10-28T18:28:56.577Z,7.82
2022-10-28T18:31:24.028Z,8.10
2022-10-28T18:33:51.840Z,8.40
2022-10-28T18:36:29.463Z,8.90
2022-10-28T18:38:57.697Z,8.10
2022-10-28T18:41:29.113Z,8.50
2022-10-28T18:44:00.561Z,8.35
2022-10-28T18:46:31.754Z,8.88
2022-10-28T18:51:33.344Z,9.98
2022-10-28T18:54:00.721Z,9.48
2022-10-28T18:56:29.637Z,9.45
2022-10-28T18:58:58.771Z,10.10
2022-10-28T19:01:28.683Z,9.35
2022-10-28T19:03:59.543Z,9.23
2022-10-28T19:06:32.483Z,9.77
2022-10-28T19:09:04.038Z,8.50
2022-10-28T19:11:33.629Z,8.63
2022-10-28T19:14:04.510Z,9.18
2022-10-28T19:16:34.066Z,8.90
2022-10-28T19:19:04.561Z,9.00
2022-10-28T19:21:33.051Z,8.30
2022-10-28T19:24:00.613Z,8.30
2022-10-28T19:26:28.380Z,9.20
2022-10-28T19:28:55.788Z,9.38
2022-10-28T19:31:27.224Z,9.35
2022-10-28T19:33:55.165Z,8.80
2022-10-28T19:36:29.020Z,9.35
2022-10-28T19:38:57.906Z,9.02
2022-10-28T19:41:30.209Z,9.27
2022-10-28T19:44:00.521Z,9.57
2022-10-28T19:46:31.984Z,8.68
2022-10-28T19:51:34.075Z,9.80
2022-10-28T19:54:05.004Z,11.40
2022-10-28T19:56:35.020Z,11.57
2022-10-28T19:59:04.434Z,11.57
2022-10-28T20:01:38.165Z,11.25
2022-10-28T20:04:06.417Z,9.70
2022-10-28T20:06:38.004Z,10.07
2022-10-28T20:11:37.691Z,11.82
2022-10-28T20:14:11.532Z,12.43
2022-10-28T20:16:42.640Z,11.63
2022-10-28T20:19:11.123Z,12.15
2022-10-28T20:21:39.127Z,11.82
2022-10-28T20:24:08.114Z,11.05
2022-10-28T20:26:38.440Z,11.45
2022-10-28T20:29:09.930Z,11.88
2022-10-28T20:31:38.997Z,13.93
2022-10-28T20:34:08.087Z,13.00
2022-10-28T20:36:44.506Z,12.05
2022-10-28T20:39:18.288Z,11.20
2022-10-28T20:41:51.261Z,11.25
2022-10-28T20:44:18.722Z,10.93
2022-10-28T20:46:47.978Z,11.73
2022-10-28T20:49:15.611Z,11.27
2022-10-28T20:51:43.082Z,11.57
2022-10-28T20:54:10.575Z,11.95
2022-10-28T20:56:40.364Z,12.80
2022-10-28T20:59:11.317Z,14.15
2022-10-28T21:01:40.778Z,12.60
2022-10-28T21:04:11.206Z,12.82
2022-10-28T21:06:39.481Z,12.98
2022-10-28T21:09:07.802Z,13.27
2022-10-28T21:11:35.228Z,13.77
2022-10-28T21:14:05.966Z,13.13
2022-10-28T21:16:33.390Z,12.87
2022-10-28T21:19:03.700Z,12.68
2022-10-28T21:21:32.101Z,12.20
2022-10-28T21:23:59.788Z,12.90
2022-10-28T21:26:27.399Z,12.40
2022-10-28T21:28:56.327Z,11.70
2022-10-28T21:31:24.568Z,11.95
2022-10-28T21:33:52.928Z,11.20
2022-10-28T21:36:22.077Z,12.38
2022-10-28T21:38:54.492Z,11.57
2022-10-28T21:41:24.079Z,11.45
2022-10-28T21:43:53.971Z,11.35
2022-10-28T21:46:23.438Z,11.38
2022-10-28T21:48:50.819Z,11.70
2022-10-28T21:51:18.306Z,11.73
2022-10-28T21:53:45.885Z,11.15
2022-10-28T21:56:19.933Z,10.23
2022-10-28T21:58:51.145Z,11.23
2022-10-28T22:01:22.657Z,11.02
2022-10-28T22:06:18.907Z,10.55
2022-10-28T22:08:46.884Z,10.90
2022-10-28T22:11:18.184Z,10.10
2022-10-28T22:13:46.132Z,9.73
2022-10-28T22:16:17.960Z,10.35
2022-10-28T22:18:45.894Z,9.65
2022-10-28T22:21:19.084Z,10.93
2022-10-28T22:23:47.660Z,10.52
2022-10-28T22:26:29.496Z,11.50
2022-10-28T22:28:57.482Z,11.35
2022-10-28T22:31:29.153Z,9.85
2022-10-28T22:33:57.584Z,9.82
2022-10-28T22:36:28.308Z,8.77
2022-10-28T22:38:55.687Z,9.20
2022-10-28T22:41:29.612Z,9.57
2022-10-28T22:44:00.529Z,9.30
2022-10-28T22:46:33.370Z,8.57
2022-10-28T22:49:00.764Z,10.27
2022-10-28T22:51:28.147Z,10.68
2022-10-28T22:53:55.648Z,10.38
2022-10-28T22:56:25.964Z,9.75
2022-10-28T22:58:58.203Z,10.30
2022-10-28T23:01:28.521Z,10.20
2022-10-28T23:03:56.360Z,10.20
2022-10-28T23:06:27.199Z,11.05
2022-10-28T23:08:54.867Z,11.23
2022-10-28T23:11:23.353Z,11.77
2022-10-28T23:13:53.386Z,12.77
2022-10-28T23:16:22.878Z,12.02
2022-10-28T23:18:52.747Z,12.07
2022-10-28T23:21:25.949Z,12.57
2022-10-28T23:23:59.965Z,12.32
2022-10-28T23:26:29.543Z,12.75
2022-10-28T23:28:59.494Z,10.93
2022-10-28T23:31:27.966Z,11.88
2022-10-28T23:33:55.417Z,10.10
2022-10-28T23:36:23.157Z,11.07
2022-10-28T23:38:50.587Z,10.52
2022-10-28T23:41:18.851Z,9.45
2022-10-28T23:43:48.607Z,9.82
2022-10-28T23:46:17.171Z,10.70
2022-10-28T23:48:44.501Z,9.90
2022-10-28T23:51:11.886Z,9.82
2022-10-28T23:53:39.281Z,10.95
2022-10-28T23:56:07.250Z,11.07
2022-10-28T23:58:34.608Z,10.73
